V8BKH EGLL-EGSS
Flight info
| Callsign | V8BKH |
|---|---|
| Flight time | 0h 33m |
| Altitude | 7000 |
| Route | BPK7F BPK DCT BKY DCT BUSTA/N0270F060 DCT LOREL DCT |
| Aircraft | B748/H-SDE3FGHIM1M2RWXY/LB1 |
Departure
| Time | 2026-05-04 17:05 |
|---|---|
| Airport | London Heathrow Airport (EGLL) |
Arrival
| Time | 2026-05-04 17:38 |
|---|---|
| Airport | London Stansted Airport (EGSS) |
| Time | Latitude | Longitude | Altitude | Speed | Heading |
|---|---|---|---|---|---|
| 2026-05-04 16:31 | 51.45980 | -0.45457 | 97 ft | 0 kts | 271° |
| 2026-05-04 16:47 | 51.45979 | -0.45386 | 97 ft | 4 kts | 280° |
| 2026-05-04 16:47 | 51.45956 | -0.45331 | 97 ft | 4 kts | 346° |
| 2026-05-04 16:48 | 51.45904 | -0.45327 | 97 ft | 0 kts | 1° |
| 2026-05-04 16:52 | 51.45989 | -0.45325 | 97 ft | 7 kts | 0° |
| 2026-05-04 16:52 | 51.46033 | -0.45325 | 97 ft | 6 kts | 0° |
| 2026-05-04 16:53 | 51.46108 | -0.45361 | 97 ft | 6 kts | 330° |
| 2026-05-04 16:53 | 51.46277 | -0.45203 | 97 ft | 13 kts | 43° |
| 2026-05-04 16:54 | 51.46326 | -0.45131 | 97 ft | 6 kts | 43° |
| 2026-05-04 16:55 | 51.46439 | -0.44963 | 97 ft | 15 kts | 43° |
| 2026-05-04 16:55 | 51.46585 | -0.44757 | 97 ft | 13 kts | 41° |
| 2026-05-04 16:56 | 51.46665 | -0.44592 | 97 ft | 9 kts | 84° |
| 2026-05-04 16:56 | 51.46665 | -0.44278 | 97 ft | 13 kts | 90° |
| 2026-05-04 16:57 | 51.46665 | -0.44139 | 97 ft | 12 kts | 89° |
| 2026-05-04 16:57 | 51.46667 | -0.43887 | 97 ft | 11 kts | 90° |
| 2026-05-04 16:58 | 51.46717 | -0.43611 | 97 ft | 9 kts | 6° |
| 2026-05-04 16:58 | 51.46777 | -0.43606 | 97 ft | 8 kts | 2° |
| 2026-05-04 16:59 | 51.46888 | -0.43599 | 97 ft | 7 kts | 360° |
| 2026-05-04 17:00 | 51.47127 | -0.43611 | 97 ft | 10 kts | 359° |
| 2026-05-04 17:00 | 51.47310 | -0.43592 | 97 ft | 8 kts | 1° |
| 2026-05-04 17:01 | 51.47417 | -0.43589 | 97 ft | 7 kts | 0° |
| 2026-05-04 17:01 | 51.47509 | -0.43591 | 97 ft | 6 kts | 359° |
| 2026-05-04 17:02 | 51.47587 | -0.43573 | 97 ft | 5 kts | 27° |
| 2026-05-04 17:02 | 51.47653 | -0.43475 | 97 ft | 7 kts | 51° |
| 2026-05-04 17:03 | 51.47680 | -0.43421 | 97 ft | 6 kts | 41° |
| 2026-05-04 17:03 | 51.47719 | -0.43403 | 97 ft | 6 kts | 9° |
| 2026-05-04 17:03 | 51.47766 | -0.43457 | 97 ft | 5 kts | 271° |
| 2026-05-04 17:04 | 51.47772 | -0.44119 | 97 ft | 88 kts | 273° |
| 2026-05-04 17:04 | 51.47730 | -0.47107 | 517 ft | 150 kts | 270° |
| 2026-05-04 17:05 | 51.47672 | -0.50451 | 1707 ft | 158 kts | 273° |
| 2026-05-04 17:05 | 51.47927 | -0.54406 | 2602 ft | 200 kts | 287° |
| 2026-05-04 17:06 | 51.49131 | -0.59098 | 3391 ft | 256 kts | 298° |
| 2026-05-04 17:06 | 51.50130 | -0.61574 | 4080 ft | 271 kts | 306° |
| 2026-05-04 17:07 | 51.52473 | -0.66276 | 5824 ft | 276 kts | 327° |
| 2026-05-04 17:07 | 51.53654 | -0.67053 | 5491 ft | 279 kts | 348° |
| 2026-05-04 17:07 | 51.56141 | -0.66549 | 5336 ft | 271 kts | 24° |
| 2026-05-04 17:07 | 51.57600 | -0.64684 | 5198 ft | 271 kts | 49° |
| 2026-05-04 17:08 | 51.58591 | -0.62137 | 5502 ft | 268 kts | 61° |
| 2026-05-04 17:08 | 51.59675 | -0.56377 | 5995 ft | 274 kts | 82° |
| 2026-05-04 17:08 | 51.60256 | -0.53494 | 5993 ft | 273 kts | 58° |
| 2026-05-04 17:09 | 51.61502 | -0.51199 | 6018 ft | 272 kts | 48° |
| 2026-05-04 17:09 | 51.62602 | -0.48731 | 5984 ft | 273 kts | 63° |
| 2026-05-04 17:09 | 51.63417 | -0.46025 | 5991 ft | 262 kts | 62° |
| 2026-05-04 17:10 | 51.65093 | -0.41110 | 5997 ft | 243 kts | 61° |
| 2026-05-04 17:10 | 51.67454 | -0.33998 | 6002 ft | 240 kts | 62° |
| 2026-05-04 17:11 | 51.68238 | -0.31622 | 6007 ft | 240 kts | 62° |
| 2026-05-04 17:11 | 51.69012 | -0.29275 | 6004 ft | 240 kts | 62° |
| 2026-05-04 17:11 | 51.70578 | -0.24524 | 6001 ft | 240 kts | 62° |
| 2026-05-04 17:12 | 51.71363 | -0.22140 | 6003 ft | 240 kts | 62° |
| 2026-05-04 17:12 | 51.72171 | -0.16863 | 5518 ft | 247 kts | 83° |
| 2026-05-04 17:13 | 51.72574 | -0.08665 | 3944 ft | 257 kts | 85° |
| 2026-05-04 17:14 | 51.73101 | -0.00439 | 2898 ft | 232 kts | 68° |
| 2026-05-04 17:14 | 51.73947 | 0.01689 | 2633 ft | 221 kts | 51° |
| 2026-05-04 17:14 | 51.75950 | 0.04839 | 2476 ft | 187 kts | 41° |
| 2026-05-04 17:15 | 51.76923 | 0.06217 | 2492 ft | 186 kts | 41° |
| 2026-05-04 17:15 | 51.78838 | 0.09033 | 2465 ft | 183 kts | 41° |
| 2026-05-04 17:16 | 51.80647 | 0.11732 | 2277 ft | 165 kts | 42° |
| 2026-05-04 17:16 | 51.82927 | 0.15142 | 1615 ft | 139 kts | 42° |
| 2026-05-04 17:17 | 51.83637 | 0.16205 | 1433 ft | 137 kts | 42° |
| 2026-05-04 17:17 | 51.85736 | 0.19329 | 876 ft | 136 kts | 41° |
| 2026-05-04 17:18 | 51.86422 | 0.20381 | 716 ft | 136 kts | 40° |
| 2026-05-04 17:18 | 51.87809 | 0.22451 | 370 ft | 131 kts | 41° |
| 2026-05-04 17:19 | 51.89196 | 0.24529 | 564 ft | 167 kts | 42° |
| 2026-05-04 17:19 | 51.91146 | 0.27439 | 2737 ft | 197 kts | 41° |
| 2026-05-04 17:20 | 51.93418 | 0.28827 | 2835 ft | 176 kts | 354° |
| 2026-05-04 17:20 | 51.95359 | 0.26262 | 1970 ft | 206 kts | 308° |
| 2026-05-04 17:20 | 51.96098 | 0.24251 | 2172 ft | 210 kts | 300° |
| 2026-05-04 17:21 | 51.97227 | 0.19807 | 2815 ft | 218 kts | 290° |
| 2026-05-04 17:21 | 51.97905 | 0.14956 | 2962 ft | 220 kts | 283° |
| 2026-05-04 17:22 | 51.98186 | 0.12521 | 2969 ft | 220 kts | 283° |
| 2026-05-04 17:22 | 51.98488 | 0.10092 | 2974 ft | 220 kts | 283° |
| 2026-05-04 17:23 | 51.99570 | 0.02857 | 2975 ft | 219 kts | 290° |
| 2026-05-04 17:23 | 52.00106 | 0.00532 | 2975 ft | 219 kts | 292° |
| 2026-05-04 17:23 | 52.01286 | -0.04006 | 2974 ft | 217 kts | 301° |
| 2026-05-04 17:24 | 52.02379 | -0.05630 | 2972 ft | 216 kts | 334° |
| 2026-05-04 17:24 | 52.06733 | -0.04735 | 2974 ft | 216 kts | 18° |
| 2026-05-04 17:25 | 52.08143 | -0.03873 | 2974 ft | 216 kts | 19° |
| 2026-05-04 17:25 | 52.11078 | -0.03313 | 2900 ft | 217 kts | 28° |
| 2026-05-04 17:26 | 52.11756 | 0.01007 | 3035 ft | 218 kts | 114° |
| 2026-05-04 17:26 | 52.07683 | 0.03935 | 3668 ft | 225 kts | 167° |
| 2026-05-04 17:27 | 52.04512 | 0.05081 | 2816 ft | 229 kts | 172° |
| 2026-05-04 17:27 | 52.01341 | 0.05230 | 2940 ft | 225 kts | 179° |
| 2026-05-04 17:28 | 51.98738 | 0.04644 | 2974 ft | 227 kts | 191° |
| 2026-05-04 17:29 | 51.94309 | 0.02394 | 2971 ft | 226 kts | 203° |
| 2026-05-04 17:29 | 51.90147 | -0.00626 | 2973 ft | 214 kts | 203° |
| 2026-05-04 17:30 | 51.86045 | -0.03359 | 2973 ft | 214 kts | 202° |
| 2026-05-04 17:31 | 51.83301 | -0.05186 | 2990 ft | 213 kts | 202° |
| 2026-05-04 17:31 | 51.79245 | -0.07884 | 2962 ft | 207 kts | 202° |
| 2026-05-04 17:32 | 51.76568 | -0.07682 | 2969 ft | 201 kts | 146° |
| 2026-05-04 17:33 | 51.74276 | -0.02736 | 2962 ft | 198 kts | 105° |
| 2026-05-04 17:33 | 51.74201 | -0.00545 | 2968 ft | 196 kts | 84° |
| 2026-05-04 17:34 | 51.76193 | 0.05005 | 2970 ft | 192 kts | 48° |
| 2026-05-04 17:34 | 51.77125 | 0.06527 | 2972 ft | 186 kts | 44° |
| 2026-05-04 17:35 | 51.79751 | 0.10397 | 2456 ft | 162 kts | 42° |
| 2026-05-04 17:35 | 51.81328 | 0.12750 | 2060 ft | 146 kts | 42° |
| 2026-05-04 17:35 | 51.82059 | 0.13842 | 1854 ft | 140 kts | 42° |
| 2026-05-04 17:36 | 51.82767 | 0.14902 | 1679 ft | 138 kts | 42° |
| 2026-05-04 17:36 | 51.83463 | 0.15944 | 1488 ft | 139 kts | 42° |
| 2026-05-04 17:36 | 51.84182 | 0.17024 | 1276 ft | 138 kts | 42° |
| 2026-05-04 17:36 | 51.84888 | 0.18070 | 1111 ft | 137 kts | 41° |
| 2026-05-04 17:37 | 51.85586 | 0.19098 | 939 ft | 137 kts | 42° |
| 2026-05-04 17:37 | 51.86277 | 0.20165 | 755 ft | 137 kts | 41° |
| 2026-05-04 17:37 | 51.86978 | 0.21205 | 580 ft | 136 kts | 43° |
| 2026-05-04 17:37 | 51.87675 | 0.22251 | 405 ft | 137 kts | 41° |
| 2026-05-04 17:38 | 51.88333 | 0.23238 | 362 ft | 111 kts | 42° |
| 2026-05-04 17:38 | 51.88753 | 0.23875 | 362 ft | 60 kts | 43° |
| 2026-05-04 17:38 | 51.88994 | 0.24249 | 362 ft | 36 kts | 54° |
| 2026-05-04 17:38 | 51.89088 | 0.24533 | 362 ft | 19 kts | 68° |
| 2026-05-04 17:39 | 51.89153 | 0.24842 | 362 ft | 10 kts | 101° |
| 2026-05-04 17:39 | 51.89121 | 0.24891 | 362 ft | 5 kts | 171° |
| 2026-05-04 17:39 | 51.89099 | 0.24876 | 362 ft | 3 kts | 210° |
| 2026-05-04 17:40 | 51.89082 | 0.24855 | 362 ft | 3 kts | 219° |
| 2026-05-04 17:40 | 51.89066 | 0.24833 | 362 ft | 4 kts | 221° |
| 2026-05-04 17:40 | 51.89023 | 0.24768 | 362 ft | 11 kts | 223° |
| 2026-05-04 17:40 | 51.88968 | 0.24687 | 362 ft | 10 kts | 223° |
| 2026-05-04 17:41 | 51.88917 | 0.24610 | 362 ft | 10 kts | 223° |
| 2026-05-04 17:41 | 51.88869 | 0.24538 | 362 ft | 9 kts | 223° |
| 2026-05-04 17:41 | 51.88824 | 0.24469 | 362 ft | 9 kts | 223° |
| 2026-05-04 17:41 | 51.88781 | 0.24403 | 362 ft | 8 kts | 223° |
| 2026-05-04 17:42 | 51.88737 | 0.24335 | 362 ft | 9 kts | 223° |
| 2026-05-04 17:42 | 51.88693 | 0.24269 | 362 ft | 8 kts | 223° |
| 2026-05-04 17:42 | 51.88651 | 0.24207 | 362 ft | 8 kts | 222° |
| 2026-05-04 17:42 | 51.88612 | 0.24149 | 362 ft | 7 kts | 222° |
| 2026-05-04 17:43 | 51.88575 | 0.24095 | 362 ft | 7 kts | 222° |
| 2026-05-04 17:43 | 51.88541 | 0.24044 | 362 ft | 6 kts | 223° |
| 2026-05-04 17:43 | 51.88510 | 0.23996 | 362 ft | 6 kts | 223° |
| 2026-05-04 17:43 | 51.88481 | 0.23952 | 362 ft | 6 kts | 223° |
| 2026-05-04 17:44 | 51.88454 | 0.23910 | 362 ft | 5 kts | 223° |
| 2026-05-04 17:44 | 51.88428 | 0.23872 | 362 ft | 5 kts | 223° |
| 2026-05-04 17:44 | 51.88390 | 0.23814 | 362 ft | 15 kts | 223° |
| 2026-05-04 17:44 | 51.88318 | 0.23706 | 362 ft | 14 kts | 223° |
| 2026-05-04 17:45 | 51.88256 | 0.23612 | 362 ft | 11 kts | 223° |
| 2026-05-04 17:45 | 51.88236 | 0.23514 | 362 ft | 10 kts | 289° |
| 2026-05-04 17:45 | 51.88262 | 0.23416 | 362 ft | 10 kts | 293° |
| 2026-05-04 17:45 | 51.88296 | 0.23291 | 362 ft | 14 kts | 294° |
| 2026-05-04 17:46 | 51.88333 | 0.23155 | 362 ft | 13 kts | 294° |
| 2026-05-04 17:46 | 51.88368 | 0.23027 | 362 ft | 12 kts | 293° |
| 2026-05-04 17:46 | 51.88398 | 0.22906 | 362 ft | 10 kts | 291° |
| 2026-05-04 17:46 | 51.88417 | 0.22831 | 362 ft | 6 kts | 293° |
| 2026-05-04 17:47 | 51.88431 | 0.22780 | 362 ft | 2 kts | 294° |
| 2026-05-04 17:47 | 51.88432 | 0.22777 | 362 ft | 0 kts | 294° |